createdAt,value
2023-02-14T00:00:56.779Z,184.10
2023-02-14T00:01:56.356Z,189.90
2023-02-14T00:02:56.444Z,195.70
2023-02-14T00:03:56.323Z,201.00
2023-02-14T00:04:56.366Z,197.00
2023-02-14T00:05:56.301Z,208.50
2023-02-14T00:06:56.277Z,196.50
2023-02-14T00:07:56.320Z,202.60
2023-02-14T00:08:56.255Z,219.80
2023-02-14T00:09:56.245Z,216.20
2023-02-14T00:10:56.388Z,213.20
2023-02-14T00:11:56.249Z,177.10
2023-02-14T00:12:56.217Z,196.70
2023-02-14T00:13:56.252Z,212.30
2023-02-14T00:14:56.201Z,197.30
2023-02-14T00:15:56.238Z,200.00
2023-02-14T00:16:56.202Z,202.40
2023-02-14T00:17:56.159Z,201.70
2023-02-14T00:18:56.168Z,217.70
2023-02-14T00:19:56.146Z,196.30
2023-02-14T00:20:56.370Z,213.60
2023-02-14T00:21:56.141Z,211.20
2023-02-14T00:22:56.100Z,211.80
2023-02-14T00:23:56.158Z,207.40
2023-02-14T00:24:56.090Z,199.80
2023-02-14T00:25:56.082Z,194.10
2023-02-14T00:26:56.081Z,202.30
2023-02-14T00:27:56.058Z,201.60
2023-02-14T00:28:56.091Z,198.00
2023-02-14T00:29:56.117Z,198.90
2023-02-14T00:30:56.124Z,194.70
2023-02-14T00:31:56.046Z,202.00
2023-02-14T00:32:56.001Z,193.50
2023-02-14T00:33:56.043Z,203.90
2023-02-14T00:34:55.983Z,208.60
2023-02-14T00:35:55.978Z,193.20
2023-02-14T00:36:55.943Z,208.60
2023-02-14T00:37:55.924Z,205.20
2023-02-14T00:38:55.953Z,193.00
2023-02-14T00:39:55.921Z,198.50
2023-02-14T00:40:56.053Z,192.30
2023-02-14T00:41:55.925Z,199.50
2023-02-14T00:42:55.890Z,190.10
2023-02-14T00:43:55.910Z,189.40
2023-02-14T00:44:55.867Z,191.70
2023-02-14T00:45:55.918Z,180.70
2023-02-14T00:46:55.850Z,163.30
2023-02-14T00:47:55.809Z,198.00
2023-02-14T00:48:55.869Z,168.30
2023-02-14T00:49:55.794Z,192.60
2023-02-14T00:50:55.820Z,169.10
2023-02-14T00:51:55.777Z,202.70
2023-02-14T00:52:55.801Z,198.40
2023-02-14T00:53:55.805Z,196.70
2023-02-14T00:54:55.764Z,195.70
2023-02-14T00:55:55.738Z,191.00
2023-02-14T00:56:55.721Z,178.50
2023-02-14T00:57:55.720Z,193.50
2023-02-14T00:58:55.743Z,171.50
2023-02-14T00:59:55.705Z,190.30
2023-02-14T01:00:55.756Z,187.80
2023-02-14T01:01:55.690Z,197.70
2023-02-14T01:02:55.750Z,181.00
2023-02-14T01:03:55.697Z,203.20
2023-02-14T01:04:55.641Z,198.60
2023-02-14T01:05:55.631Z,205.10
2023-02-14T01:06:55.610Z,184.50
2023-02-14T01:07:55.602Z,213.70
2023-02-14T01:08:55.638Z,203.40
2023-02-14T01:09:55.576Z,178.10
2023-02-14T01:10:55.579Z,221.70
2023-02-14T01:11:55.573Z,196.50
2023-02-14T01:12:55.548Z,216.60
2023-02-14T01:13:55.534Z,206.50
2023-02-14T01:14:55.569Z,291.20
2023-02-14T01:15:55.514Z,308.50
2023-02-14T01:16:55.580Z,275.60
2023-02-14T01:17:55.501Z,270.30
2023-02-14T01:18:55.487Z,266.30
2023-02-14T01:19:55.488Z,264.60
2023-02-14T01:20:55.468Z,195.10
2023-02-14T01:21:55.436Z,158.80
2023-02-14T01:22:55.446Z,157.60
2023-02-14T01:23:55.417Z,160.20
2023-02-14T01:24:55.493Z,223.50
2023-02-14T01:25:55.397Z,164.70
2023-02-14T01:26:55.399Z,266.00
2023-02-14T01:27:55.385Z,198.00
2023-02-14T01:28:55.361Z,341.70
2023-02-14T01:29:55.396Z,268.30
2023-02-14T01:30:55.385Z,263.00
2023-02-14T01:31:55.414Z,267.10
2023-02-14T01:32:55.326Z,266.20
2023-02-14T01:33:55.314Z,258.70
2023-02-14T01:34:55.332Z,142.30
2023-02-14T01:35:55.276Z,179.20
2023-02-14T01:36:55.276Z,217.90
2023-02-14T01:37:55.263Z,160.60
2023-02-14T01:38:55.271Z,203.50
2023-02-14T01:39:55.275Z,237.80
2023-02-14T01:40:55.248Z,191.80
2023-02-14T01:41:55.231Z,159.00
2023-02-14T01:42:55.223Z,176.80
2023-02-14T01:43:55.210Z,208.30
2023-02-14T01:44:55.234Z,183.70
2023-02-14T01:45:55.241Z,309.40
2023-02-14T01:46:55.176Z,271.80
2023-02-14T01:47:55.166Z,267.70
2023-02-14T01:48:55.144Z,275.10
2023-02-14T01:49:55.182Z,274.50
2023-02-14T01:50:55.133Z,285.80
2023-02-14T01:51:55.129Z,279.80
2023-02-14T01:52:55.115Z,276.50
2023-02-14T01:53:55.081Z,266.30
2023-02-14T01:54:55.116Z,272.40
2023-02-14T01:55:55.077Z,268.60
2023-02-14T01:56:55.075Z,262.10
2023-02-14T01:57:55.052Z,267.70
2023-02-14T01:58:55.062Z,257.40
2023-02-14T01:59:55.076Z,256.50
2023-02-14T02:00:55.072Z,252.30
2023-02-14T02:01:55.028Z,198.00
2023-02-14T02:02:54.983Z,188.00
2023-02-14T02:03:54.984Z,234.20
2023-02-14T02:04:55.040Z,192.70
2023-02-14T02:05:54.940Z,195.10
2023-02-14T02:06:54.956Z,202.40
2023-02-14T02:07:54.955Z,185.80
2023-02-14T02:08:54.956Z,173.80
2023-02-14T02:09:54.968Z,177.70
2023-02-14T02:10:54.928Z,173.00
2023-02-14T02:11:54.903Z,200.80
2023-02-14T02:12:54.891Z,167.80
2023-02-14T02:13:54.884Z,174.50
2023-02-14T02:14:54.889Z,198.10
2023-02-14T02:15:54.899Z,210.30
2023-02-14T02:16:54.885Z,178.30
2023-02-14T02:17:54.822Z,157.20
2023-02-14T02:18:54.819Z,164.00
2023-02-14T02:19:54.802Z,234.20
2023-02-14T02:20:54.836Z,303.60
2023-02-14T02:21:54.781Z,316.50
2023-02-14T02:22:54.771Z,324.40
2023-02-14T02:23:54.785Z,324.60
2023-02-14T02:24:54.752Z,326.30
2023-02-14T02:25:54.791Z,318.50
2023-02-14T02:26:54.727Z,175.00
2023-02-14T02:27:54.710Z,168.50
2023-02-14T02:28:54.716Z,173.70
2023-02-14T02:29:54.702Z,190.80
2023-02-14T02:30:54.838Z,195.30
2023-02-14T02:31:54.849Z,317.80
2023-02-14T02:32:54.649Z,307.00
2023-02-14T02:33:54.623Z,331.30
2023-02-14T02:34:54.622Z,321.90
2023-02-14T02:35:54.652Z,328.50
2023-02-14T02:36:54.617Z,320.00
2023-02-14T02:37:54.634Z,282.20
2023-02-14T02:38:54.599Z,275.20
2023-02-14T02:39:54.585Z,272.40
2023-02-14T02:40:54.630Z,263.50
2023-02-14T02:41:54.545Z,266.90
2023-02-14T02:42:54.585Z,266.90
2023-02-14T02:43:54.532Z,279.20
2023-02-14T02:44:54.533Z,318.80
2023-02-14T02:45:54.682Z,334.30
2023-02-14T02:46:54.499Z,347.60
2023-02-14T02:47:54.489Z,359.90
2023-02-14T02:48:54.498Z,139.30
2023-02-14T02:49:54.462Z,153.80
2023-02-14T02:50:54.501Z,137.70
2023-02-14T02:51:54.460Z,192.00
2023-02-14T02:52:54.440Z,136.40
2023-02-14T02:53:54.436Z,229.70
2023-02-14T02:54:54.416Z,164.10
2023-02-14T02:55:54.443Z,155.10
2023-02-14T02:56:54.396Z,160.10
2023-02-14T02:57:54.388Z,190.70
2023-02-14T02:58:54.396Z,184.20
2023-02-14T02:59:54.344Z,150.90
2023-02-14T03:00:54.371Z,141.90
2023-02-14T03:01:54.330Z,159.20
2023-02-14T03:02:54.342Z,134.50
2023-02-14T03:03:54.301Z,132.20
2023-02-14T03:04:54.475Z,136.20
2023-02-14T03:05:54.339Z,145.90
2023-02-14T03:06:54.282Z,153.20
2023-02-14T03:07:54.286Z,167.20
2023-02-14T03:08:54.251Z,158.60
2023-02-14T03:09:54.267Z,166.20
2023-02-14T03:10:54.288Z,155.90
2023-02-14T03:11:54.205Z,160.20
2023-02-14T03:12:54.222Z,157.30
2023-02-14T03:13:54.201Z,159.80
2023-02-14T03:14:54.194Z,158.40
2023-02-14T03:15:54.360Z,154.90
2023-02-14T03:16:54.182Z,161.20
2023-02-14T03:17:54.138Z,164.50
2023-02-14T03:18:54.142Z,171.70
2023-02-14T03:19:54.132Z,166.50
2023-02-14T03:20:54.165Z,143.70
2023-02-14T03:21:54.091Z,155.70
2023-02-14T03:22:54.121Z,158.10
2023-02-14T03:23:54.103Z,170.30
2023-02-14T03:24:54.082Z,174.70
2023-02-14T03:25:54.107Z,174.00
2023-02-14T03:26:54.050Z,159.20
2023-02-14T03:27:54.040Z,165.80
2023-02-14T03:28:54.035Z,170.10
2023-02-14T03:29:54.041Z,169.00
2023-02-14T03:30:54.117Z,153.00
2023-02-14T03:31:54.105Z,166.20
2023-02-14T03:32:54.010Z,169.90
2023-02-14T03:33:53.978Z,172.40
2023-02-14T03:34:53.982Z,172.60
2023-02-14T03:35:53.985Z,166.60
2023-02-14T03:36:53.934Z,167.70
2023-02-14T03:37:53.918Z,154.00
2023-02-14T03:38:53.920Z,173.40
2023-02-14T03:39:53.910Z,295.60
2023-02-14T03:40:53.922Z,288.40
2023-02-14T03:41:53.886Z,300.90
2023-02-14T03:42:53.868Z,299.70
2023-02-14T03:43:53.855Z,287.90
2023-02-14T03:44:53.923Z,249.10
2023-02-14T03:45:53.871Z,168.00
2023-02-14T03:46:53.831Z,139.20
2023-02-14T03:47:53.811Z,175.40
2023-02-14T03:48:53.814Z,204.60
2023-02-14T03:49:53.789Z,320.80
2023-02-14T03:50:53.829Z,291.30
2023-02-14T03:51:53.762Z,316.60
2023-02-14T03:52:53.754Z,301.20
2023-02-14T03:53:53.749Z,304.10
2023-02-14T03:54:53.744Z,148.70
2023-02-14T03:55:53.748Z,139.70
2023-02-14T03:56:53.736Z,165.70
2023-02-14T03:57:53.693Z,141.00
2023-02-14T03:58:53.684Z,247.40
2023-02-14T03:59:53.655Z,329.00
2023-02-14T04:00:53.708Z,336.50
2023-02-14T04:01:53.747Z,322.40
2023-02-14T04:02:53.644Z,318.10
2023-02-14T04:03:53.690Z,309.70
2023-02-14T04:04:53.621Z,281.00
2023-02-14T04:05:53.650Z,167.50
2023-02-14T04:06:53.605Z,160.50
2023-02-14T04:07:53.596Z,180.60
2023-02-14T04:08:53.588Z,325.40
2023-02-14T04:09:53.544Z,323.70
2023-02-14T04:10:53.612Z,331.30
2023-02-14T04:11:53.547Z,338.90
2023-02-14T04:12:53.558Z,330.00
2023-02-14T04:13:53.518Z,334.80
2023-02-14T04:14:53.512Z,329.60
2023-02-14T04:15:53.565Z,331.90
2023-02-14T04:16:53.484Z,314.80
2023-02-14T04:17:53.480Z,303.20
2023-02-14T04:18:53.491Z,289.30
2023-02-14T04:19:53.454Z,283.80
2023-02-14T04:20:53.471Z,276.70
2023-02-14T04:21:53.439Z,286.80
2023-02-14T04:22:53.418Z,271.10
2023-02-14T04:23:53.396Z,270.10
2023-02-14T04:24:53.397Z,265.50
2023-02-14T04:25:53.415Z,269.30
2023-02-14T04:26:53.372Z,271.70
2023-02-14T04:27:53.367Z,265.30
2023-02-14T04:28:53.343Z,271.60
2023-02-14T04:29:53.342Z,126.90
2023-02-14T04:30:53.385Z,131.50
2023-02-14T04:31:53.481Z,183.80
2023-02-14T04:32:53.319Z,133.00
2023-02-14T04:33:53.293Z,131.60
2023-02-14T04:34:53.278Z,148.50
2023-02-14T04:35:53.305Z,167.90
2023-02-14T04:36:53.260Z,129.40
2023-02-14T04:37:53.280Z,161.60
2023-02-14T04:38:53.237Z,136.00
2023-02-14T04:39:53.214Z,146.90
2023-02-14T04:40:53.248Z,125.30
2023-02-14T04:41:53.211Z,180.90
2023-02-14T04:42:53.187Z,127.00
2023-02-14T04:43:53.201Z,229.40
2023-02-14T04:44:53.174Z,247.00
2023-02-14T04:45:53.191Z,369.20
2023-02-14T04:46:53.276Z,329.30
2023-02-14T04:47:53.157Z,322.00
2023-02-14T04:48:53.140Z,349.60
2023-02-14T04:49:53.122Z,314.30
2023-02-14T04:50:53.144Z,366.40
2023-02-14T04:51:53.097Z,327.50
2023-02-14T04:52:53.074Z,312.90
2023-02-14T04:53:53.065Z,310.60
2023-02-14T04:54:53.045Z,315.40
2023-02-14T04:55:53.077Z,312.70
2023-02-14T04:56:53.065Z,306.10
2023-02-14T04:57:53.014Z,304.10
2023-02-14T04:58:53.019Z,287.20
2023-02-14T04:59:53.002Z,286.70
2023-02-14T05:00:53.063Z,299.30
2023-02-14T05:01:53.060Z,297.50
2023-02-14T05:02:52.967Z,306.40
2023-02-14T05:03:52.954Z,304.40
2023-02-14T05:04:52.937Z,296.40
2023-02-14T05:05:52.972Z,288.00
2023-02-14T05:06:52.914Z,286.50
2023-02-14T05:07:52.918Z,279.10
2023-02-14T05:08:52.894Z,276.50
2023-02-14T05:09:52.888Z,266.00
2023-02-14T05:10:52.907Z,261.10
2023-02-14T05:11:52.862Z,263.00
2023-02-14T05:12:52.834Z,254.30
2023-02-14T05:13:52.850Z,257.10
2023-02-14T05:14:52.832Z,255.30
2023-02-14T05:15:52.947Z,243.20
2023-02-14T05:16:52.809Z,249.10
2023-02-14T05:17:52.799Z,242.90
2023-02-14T05:18:52.801Z,254.20
2023-02-14T05:19:52.769Z,245.00
2023-02-14T05:20:52.803Z,244.20
2023-02-14T05:21:52.751Z,243.80
2023-02-14T05:22:52.730Z,254.70
2023-02-14T05:23:52.736Z,259.10
2023-02-14T05:24:52.707Z,268.30
2023-02-14T05:25:52.759Z,269.00
2023-02-14T05:26:52.683Z,267.20
2023-02-14T05:27:52.668Z,262.50
2023-02-14T05:28:52.676Z,251.10
2023-02-14T05:29:52.692Z,238.00
2023-02-14T05:30:52.701Z,231.30
2023-02-14T05:31:52.734Z,227.00
2023-02-14T05:32:52.686Z,222.60
2023-02-14T05:33:52.616Z,237.60
2023-02-14T05:34:52.606Z,243.40
2023-02-14T05:35:52.639Z,250.10
2023-02-14T05:36:52.573Z,270.10
2023-02-14T05:37:52.569Z,287.00
2023-02-14T05:38:52.565Z,311.00
2023-02-14T05:39:52.553Z,305.20
2023-02-14T05:40:52.562Z,277.20
2023-02-14T05:41:52.518Z,293.10
2023-02-14T05:42:52.512Z,309.60
2023-02-14T05:43:52.503Z,314.90
2023-02-14T05:44:52.499Z,314.50
2023-02-14T05:45:52.560Z,314.50
2023-02-14T05:46:52.484Z,317.30
2023-02-14T05:47:52.469Z,308.20
2023-02-14T05:48:52.558Z,310.00
2023-02-14T05:49:52.442Z,293.50
2023-02-14T05:50:52.452Z,266.30
2023-02-14T05:51:52.408Z,274.60
2023-02-14T05:52:52.400Z,267.00
2023-02-14T05:53:52.396Z,265.20
2023-02-14T05:54:52.376Z,285.50
2023-02-14T05:55:52.392Z,277.00
2023-02-14T05:56:52.349Z,283.10
2023-02-14T05:57:52.360Z,285.90
2023-02-14T05:58:52.361Z,293.20
2023-02-14T05:59:52.305Z,268.20
2023-02-14T06:00:52.407Z,297.70
2023-02-14T06:01:52.362Z,300.00
2023-02-14T06:02:52.276Z,301.40
2023-02-14T06:03:52.307Z,290.90
2023-02-14T06:04:52.337Z,301.20
2023-02-14T06:05:52.312Z,303.20
2023-02-14T06:06:52.240Z,307.20
2023-02-14T06:07:52.252Z,306.50
2023-02-14T06:08:52.230Z,303.60
2023-02-14T06:09:52.214Z,316.60
2023-02-14T06:10:52.279Z,313.00
2023-02-14T06:11:54.339Z,286.70
2023-02-14T06:12:52.178Z,309.30
2023-02-14T06:13:52.186Z,295.60
2023-02-14T06:14:52.139Z,264.70
2023-02-14T06:15:52.155Z,260.70
2023-02-14T06:16:52.235Z,256.50
2023-02-14T06:17:52.123Z,262.30
2023-02-14T06:18:52.113Z,264.10
2023-02-14T06:19:52.104Z,219.10
2023-02-14T06:20:52.085Z,165.10
2023-02-14T06:21:52.135Z,165.60
2023-02-14T06:22:52.094Z,180.70
2023-02-14T06:23:52.049Z,174.80
2023-02-14T06:24:52.023Z,166.30
2023-02-14T06:25:52.020Z,178.60
2023-02-14T06:26:52.074Z,177.60
2023-02-14T06:27:52.009Z,168.70
2023-02-14T06:28:52.007Z,189.30
2023-02-14T06:29:52.023Z,160.00
2023-02-14T06:30:52.168Z,191.40
2023-02-14T06:31:52.118Z,178.60
2023-02-14T06:32:51.967Z,166.60
2023-02-14T06:33:51.960Z,163.80
2023-02-14T06:34:51.926Z,193.10
2023-02-14T06:35:51.906Z,194.20
2023-02-14T06:36:51.927Z,157.40
2023-02-14T06:37:51.912Z,182.70
2023-02-14T06:38:51.886Z,164.10
2023-02-14T06:39:51.891Z,184.50
2023-02-14T06:40:51.880Z,176.90
2023-02-14T06:41:51.894Z,163.60
2023-02-14T06:42:51.828Z,171.90
2023-02-14T06:43:51.830Z,171.00
2023-02-14T06:44:51.813Z,184.30
2023-02-14T06:45:51.835Z,149.90
2023-02-14T06:46:51.830Z,167.20
2023-02-14T06:47:51.809Z,198.00
2023-02-14T06:48:51.765Z,129.80
2023-02-14T06:49:51.776Z,185.90
2023-02-14T06:50:51.752Z,195.10
2023-02-14T06:51:51.796Z,260.50
2023-02-14T06:52:51.725Z,296.80
2023-02-14T06:53:51.715Z,292.20
2023-02-14T06:54:51.694Z,290.10
2023-02-14T06:55:51.695Z,252.10
2023-02-14T06:56:51.773Z,226.90
2023-02-14T06:57:51.663Z,231.00
2023-02-14T06:58:51.651Z,229.00
2023-02-14T06:59:51.660Z,228.40
2023-02-14T07:00:51.645Z,222.20
2023-02-14T07:01:51.714Z,128.70
2023-02-14T07:02:51.677Z,176.30
2023-02-14T07:03:51.605Z,167.40
2023-02-14T07:04:51.627Z,140.90
2023-02-14T07:05:51.591Z,162.00
2023-02-14T07:06:51.612Z,114.50
2023-02-14T07:07:51.551Z,143.80
2023-02-14T07:08:51.539Z,176.70
2023-02-14T07:09:51.543Z,102.10
2023-02-14T07:10:51.517Z,204.50
2023-02-14T07:11:51.588Z,106.00
2023-02-14T07:12:51.518Z,126.90
2023-02-14T07:13:51.536Z,122.10
2023-02-14T07:14:51.482Z,136.10
2023-02-14T07:15:51.552Z,185.30
2023-02-14T07:16:51.458Z,129.60
2023-02-14T07:17:51.492Z,175.00
2023-02-14T07:18:51.448Z,152.70
2023-02-14T07:19:51.422Z,116.50
2023-02-14T07:20:51.415Z,218.40
2023-02-14T07:21:51.413Z,138.90
2023-02-14T07:22:51.419Z,212.10
2023-02-14T07:23:51.399Z,125.10
2023-02-14T07:24:51.392Z,132.30
2023-02-14T07:25:51.350Z,213.10
2023-02-14T07:26:51.357Z,91.50
2023-02-14T07:27:51.396Z,213.80
2023-02-14T07:28:51.323Z,101.90
2023-02-14T07:29:51.343Z,173.50
2023-02-14T07:30:51.387Z,173.10
2023-02-14T07:31:51.450Z,165.00
2023-02-14T07:32:51.319Z,168.60
2023-02-14T07:33:51.286Z,162.30
2023-02-14T07:34:51.284Z,95.50
2023-02-14T07:35:51.267Z,107.20
2023-02-14T07:36:51.262Z,86.90
2023-02-14T07:37:51.285Z,190.40
2023-02-14T07:38:51.216Z,177.80
2023-02-14T07:39:51.216Z,98.00
2023-02-14T07:40:51.230Z,209.50
2023-02-14T07:41:51.192Z,101.00
2023-02-14T07:42:51.242Z,222.80
2023-02-14T07:43:51.175Z,226.80
2023-02-14T07:44:51.136Z,330.00
2023-02-14T07:45:51.174Z,220.80
2023-02-14T07:46:51.139Z,741.90
2023-02-14T07:47:51.152Z,999.90
2023-02-14T07:48:51.085Z,162.70
2023-02-14T07:49:51.076Z,999.90
2023-02-14T07:50:51.064Z,361.30
2023-02-14T07:51:51.078Z,999.90
2023-02-14T07:52:51.108Z,271.10
2023-02-14T07:53:51.039Z,999.90
2023-02-14T07:54:51.051Z,595.50
2023-02-14T07:55:51.019Z,999.90
2023-02-14T07:56:51.004Z,749.80
2023-02-14T07:57:51.031Z,999.90
2023-02-14T07:58:51.004Z,999.90
2023-02-14T07:59:50.989Z,359.30
2023-02-14T08:00:50.969Z,999.90
2023-02-14T08:01:51.056Z,999.90
2023-02-14T08:02:51.012Z,999.90
2023-02-14T08:03:50.908Z,999.90
2023-02-14T08:04:50.950Z,999.90
2023-02-14T08:05:50.900Z,999.90
2023-02-14T08:06:50.908Z,999.90
2023-02-14T08:07:50.937Z,999.90
2023-02-14T08:08:50.894Z,999.90
2023-02-14T08:09:50.877Z,999.90
2023-02-14T08:10:50.844Z,999.90
2023-02-14T08:11:50.846Z,999.90
2023-02-14T08:12:50.865Z,999.90
2023-02-14T08:13:50.822Z,999.90
2023-02-14T08:14:50.798Z,999.90
2023-02-14T08:15:50.884Z,999.90
2023-02-14T08:16:50.764Z,999.90
2023-02-14T08:17:50.772Z,999.90
2023-02-14T08:18:50.785Z,999.90
2023-02-14T08:19:50.738Z,999.90
2023-02-14T08:20:50.741Z,999.90
2023-02-14T08:21:50.714Z,999.90
2023-02-14T08:22:50.722Z,999.90
2023-02-14T08:23:50.733Z,999.90
2023-02-14T08:24:50.689Z,999.90
2023-02-14T08:25:50.678Z,999.90
2023-02-14T08:26:50.647Z,999.90
2023-02-14T08:27:50.694Z,999.90
2023-02-14T08:28:50.679Z,999.90
2023-02-14T08:29:50.671Z,999.90
2023-02-14T08:30:50.628Z,999.90
2023-02-14T08:31:50.794Z,999.90
2023-02-14T08:32:50.678Z,999.90
2023-02-14T08:33:50.632Z,999.90
2023-02-14T08:34:50.570Z,999.90
2023-02-14T08:35:50.542Z,999.90
2023-02-14T08:36:50.564Z,675.20
2023-02-14T08:37:50.537Z,936.90
2023-02-14T08:38:50.581Z,999.90
2023-02-14T08:39:50.538Z,999.90
2023-02-14T08:40:50.514Z,999.90
2023-02-14T08:41:50.503Z,999.90
2023-02-14T08:42:50.498Z,999.90
2023-02-14T08:43:50.519Z,999.90
2023-02-14T08:44:50.433Z,548.80
2023-02-14T08:45:50.448Z,999.90
2023-02-14T08:46:50.489Z,999.90
2023-02-14T08:47:50.437Z,999.90
2023-02-14T08:48:50.469Z,999.90
2023-02-14T08:49:50.460Z,999.90
2023-02-14T08:50:50.405Z,999.90
2023-02-14T08:51:50.413Z,999.90
2023-02-14T08:52:50.383Z,999.90
2023-02-14T08:53:50.411Z,999.90
2023-02-14T08:54:50.356Z,999.90
2023-02-14T08:55:50.353Z,999.90
2023-02-14T08:56:50.364Z,120.00
2023-02-14T08:57:50.323Z,92.70
2023-02-14T08:58:50.366Z,53.90
2023-02-14T08:59:50.284Z,999.90
2023-02-14T09:00:50.338Z,999.90
2023-02-14T09:01:50.319Z,999.90
2023-02-14T09:02:50.274Z,999.90
2023-02-14T09:03:50.307Z,999.90
2023-02-14T09:04:50.244Z,999.90
2023-02-14T09:05:50.219Z,56.60
2023-02-14T09:06:50.215Z,99.50
2023-02-14T09:07:50.237Z,999.90
2023-02-14T09:08:50.298Z,999.90
2023-02-14T09:09:50.213Z,114.50
2023-02-14T09:10:50.244Z,753.30
2023-02-14T09:11:50.161Z,102.80
2023-02-14T09:12:50.135Z,853.90
2023-02-14T09:13:50.154Z,999.90
2023-02-14T09:14:50.200Z,999.90
2023-02-14T09:15:50.168Z,150.70
2023-02-14T09:16:50.339Z,999.90
2023-02-14T09:17:50.103Z,999.90
2023-02-14T09:18:50.078Z,999.90
2023-02-14T09:19:50.149Z,999.90
2023-02-14T09:20:50.074Z,999.90
2023-02-14T09:21:50.061Z,999.90
2023-02-14T09:22:50.056Z,999.90
2023-02-14T09:23:50.018Z,37.40
2023-02-14T09:24:50.054Z,999.90
2023-02-14T09:25:50.038Z,159.90
2023-02-14T09:26:49.991Z,999.90
2023-02-14T09:27:49.986Z,106.50
2023-02-14T09:28:49.954Z,999.90
2023-02-14T09:29:50.118Z,999.90
2023-02-14T09:30:50.020Z,999.90
2023-02-14T09:31:50.005Z,999.90
2023-02-14T09:32:49.930Z,999.90
2023-02-14T09:33:49.919Z,999.90
2023-02-14T09:34:49.957Z,999.90
2023-02-14T09:35:49.912Z,999.90
2023-02-14T09:36:49.878Z,178.40
2023-02-14T09:37:49.864Z,999.90
2023-02-14T09:38:49.862Z,999.90
2023-02-14T09:39:49.871Z,999.90
2023-02-14T09:40:49.818Z,999.90
2023-02-14T09:41:49.811Z,54.10
2023-02-14T09:42:49.811Z,999.90
2023-02-14T09:43:49.772Z,58.10
2023-02-14T09:44:49.814Z,999.90
2023-02-14T09:45:49.842Z,999.90
2023-02-14T09:46:49.803Z,999.90
2023-02-14T09:47:49.732Z,999.90
2023-02-14T09:48:49.811Z,999.90
2023-02-14T09:49:49.789Z,999.90
2023-02-14T09:50:49.707Z,999.90
2023-02-14T09:51:49.706Z,999.90
2023-02-14T09:52:49.711Z,999.90
2023-02-14T09:53:49.693Z,999.90
2023-02-14T09:54:49.703Z,999.90
2023-02-14T09:55:49.653Z,999.90
2023-02-14T09:56:51.726Z,999.90
2023-02-14T09:57:49.638Z,999.90
2023-02-14T09:58:49.637Z,29.90
2023-02-14T09:59:49.687Z,534.30
2023-02-14T10:00:49.689Z,999.90
2023-02-14T10:01:49.668Z,999.90
2023-02-14T10:02:49.566Z,999.90
2023-02-14T10:03:49.571Z,243.90
2023-02-14T10:04:49.604Z,999.90
2023-02-14T10:05:49.537Z,999.90
2023-02-14T10:06:49.529Z,968.10
2023-02-14T10:07:49.531Z,355.30
2023-02-14T10:08:49.489Z,287.00
2023-02-14T10:09:49.526Z,281.50
2023-02-14T10:10:49.495Z,320.40
2023-02-14T10:11:49.471Z,110.20
2023-02-14T10:12:49.456Z,20.90
2023-02-14T10:13:49.457Z,19.00
2023-02-14T10:14:49.469Z,201.70
2023-02-14T10:15:49.438Z,302.70
2023-02-14T10:16:49.469Z,280.40
2023-02-14T10:17:49.432Z,267.00
2023-02-14T10:18:49.408Z,257.10
2023-02-14T10:19:49.421Z,264.10
2023-02-14T10:20:49.407Z,231.50
2023-02-14T10:21:49.384Z,240.90
2023-02-14T10:22:49.376Z,296.60
2023-02-14T10:23:49.339Z,301.10
2023-02-14T10:24:49.338Z,18.60
2023-02-14T10:25:49.379Z,84.00
2023-02-14T10:26:49.313Z,283.30
2023-02-14T10:27:49.300Z,276.30
2023-02-14T10:28:49.318Z,267.20
2023-02-14T10:29:49.297Z,276.70
2023-02-14T10:30:49.367Z,147.90
2023-02-14T10:31:49.264Z,171.50
2023-02-14T10:32:49.265Z,231.40
2023-02-14T10:33:49.196Z,259.80
2023-02-14T10:34:49.209Z,263.00
2023-02-14T10:35:49.234Z,271.80
2023-02-14T10:36:49.239Z,165.90
2023-02-14T10:37:49.196Z,153.70
2023-02-14T10:38:49.173Z,98.60
2023-02-14T10:39:49.177Z,108.70
2023-02-14T10:40:49.214Z,175.50
2023-02-14T10:41:49.179Z,249.00
2023-02-14T10:42:49.137Z,262.20
2023-02-14T10:43:49.238Z,126.00
2023-02-14T10:44:49.109Z,185.10
2023-02-14T10:45:49.147Z,183.20
2023-02-14T10:46:49.087Z,260.50
2023-02-14T10:47:49.058Z,227.40
2023-02-14T10:48:49.047Z,213.50
2023-02-14T10:49:49.054Z,256.30
2023-02-14T10:50:49.095Z,208.50
2023-02-14T10:51:49.025Z,248.00
2023-02-14T10:52:49.009Z,141.40
2023-02-14T10:53:49.022Z,130.40
2023-02-14T10:54:49.012Z,76.50
2023-02-14T10:55:49.015Z,149.80
2023-02-14T10:56:48.994Z,125.60
2023-02-14T10:57:48.977Z,138.90
2023-02-14T10:58:48.952Z,158.10
2023-02-14T10:59:48.930Z,231.10
2023-02-14T11:00:48.989Z,256.30
2023-02-14T11:01:48.900Z,110.90
2023-02-14T11:02:48.893Z,231.90
2023-02-14T11:03:48.897Z,245.80
2023-02-14T11:04:48.883Z,229.50
2023-02-14T11:05:48.920Z,177.60
2023-02-14T11:06:48.894Z,102.20
2023-02-14T11:07:48.846Z,184.50
2023-02-14T11:08:48.867Z,75.50
2023-02-14T11:09:48.849Z,15.40
2023-02-14T11:10:48.856Z,89.50
2023-02-14T11:11:48.816Z,87.00
2023-02-14T11:12:48.797Z,96.10
2023-02-14T11:13:48.800Z,94.80
2023-02-14T11:14:48.768Z,94.60
2023-02-14T11:15:48.761Z,59.30
2023-02-14T11:16:48.834Z,15.70
2023-02-14T11:17:48.758Z,92.80
2023-02-14T11:18:48.760Z,15.90
2023-02-14T11:19:48.728Z,17.80
2023-02-14T11:20:48.721Z,15.90
2023-02-14T11:21:48.724Z,14.40
2023-02-14T11:22:48.716Z,14.50
2023-02-14T11:23:48.704Z,14.70
2023-02-14T11:24:48.702Z,14.30
2023-02-14T11:25:48.659Z,15.00
2023-02-14T11:26:48.690Z,15.50
2023-02-14T11:27:48.624Z,14.80
2023-02-14T11:28:48.729Z,15.10
2023-02-14T11:29:48.612Z,16.50
2023-02-14T11:30:48.694Z,16.80
2023-02-14T11:31:48.686Z,15.50
2023-02-14T11:32:48.571Z,16.40
2023-02-14T11:33:48.556Z,16.40
2023-02-14T11:34:48.573Z,15.90
2023-02-14T11:35:48.525Z,14.10
2023-02-14T11:36:48.570Z,14.60
2023-02-14T11:37:48.518Z,13.40
2023-02-14T11:38:48.556Z,14.10
2023-02-14T11:39:48.482Z,13.30
2023-02-14T11:40:48.465Z,13.40
2023-02-14T11:41:48.508Z,12.50
2023-02-14T11:42:51.684Z,12.80
2023-02-14T11:43:49.432Z,13.70
2023-02-14T11:44:48.436Z,12.90
2023-02-14T11:45:48.475Z,12.90
2023-02-14T11:46:53.547Z,12.70
2023-02-14T11:47:49.394Z,12.70
2023-02-14T11:48:48.400Z,12.10
2023-02-14T11:49:48.363Z,13.00
2023-02-14T11:50:48.371Z,11.10
2023-02-14T11:51:48.394Z,12.20
2023-02-14T11:52:48.366Z,12.10
2023-02-14T11:53:48.320Z,11.80
2023-02-14T11:54:48.361Z,11.40
2023-02-14T11:55:48.308Z,10.70
2023-02-14T11:56:48.319Z,11.60
2023-02-14T11:57:48.278Z,11.70
2023-02-14T11:58:48.260Z,11.90
2023-02-14T11:59:48.267Z,12.20
2023-02-14T12:00:48.240Z,12.00
2023-02-14T12:01:48.292Z,11.70
2023-02-14T12:02:48.245Z,11.90
2023-02-14T12:03:48.214Z,11.80
2023-02-14T12:04:48.210Z,11.60
2023-02-14T12:05:48.183Z,12.10
2023-02-14T12:06:48.216Z,12.60
2023-02-14T12:07:48.182Z,12.40
2023-02-14T12:08:48.186Z,11.20
2023-02-14T12:09:48.151Z,13.00
2023-02-14T12:10:48.171Z,11.70
2023-02-14T12:11:48.179Z,12.00
2023-02-14T12:12:48.102Z,11.70
2023-02-14T12:13:48.116Z,12.30
2023-02-14T12:14:48.102Z,12.40
2023-02-14T12:15:48.117Z,12.00
2023-02-14T12:16:48.121Z,11.80
2023-02-14T12:17:48.067Z,11.50
2023-02-14T12:18:48.081Z,12.40
2023-02-14T12:19:48.036Z,11.10
2023-02-14T12:20:48.063Z,11.70
2023-02-14T12:21:48.064Z,11.80
2023-02-14T12:22:48.028Z,11.50
2023-02-14T12:23:48.014Z,13.20
2023-02-14T12:24:47.954Z,12.60
2023-02-14T12:25:47.965Z,13.10
2023-02-14T12:26:47.991Z,12.10
2023-02-14T12:27:47.956Z,12.00
2023-02-14T12:28:47.948Z,11.30
2023-02-14T12:29:48.045Z,11.70
2023-02-14T12:30:48.046Z,11.30
2023-02-14T12:31:48.066Z,11.20